Time;durP1;ratioP1;P1;durP2;ratioP2;P2;SDS_P1;SDS_P2;PMS_P1;PMS_P2;Temp;Humidity;BMP_temperature;BMP_pressure;BME280_temperature;BME280_humidity;BME280_pressure;Samples;Min_cycle;Max_cycle;Signal;HPM_P1;HPM_P2
2021/12/05 00:18:20;;;;;;;18.80;2.60;;;;;;;2.44;100.00;99843.69;5222687;28;20048;-67
2021/12/05 00:23:33;;;;;;;16.40;3.10;;;;;;;2.48;100.00;99843.28;5222407;28;20028;-66
2021/12/05 00:26:05;;;;;;;16.33;2.80;;;;;;;2.46;100.00;99839.94;5222090;28;20021;-66
2021/12/05 00:29:03;;;;;;;20.13;3.22;;;;;;;2.44;100.00;99839.22;5221777;28;20461;-67
2021/12/05 00:34:24;;;;;;;21.65;2.40;;;;;;;2.44;100.00;99838.38;5221753;28;20033;-67
2021/12/05 00:40:16;;;;;;;14.55;2.40;;;;;;;2.57;100.00;99838.97;5222350;28;20017;-66
2021/12/05 00:48:32;;;;;;;10.43;2.55;;;;;;;2.59;100.00;99837.00;5221968;28;20440;-66
2021/12/05 00:51:19;;;;;;;16.02;2.38;;;;;;;2.55;100.00;99833.78;5221951;28;20031;-66
2021/12/05 00:57:09;;;;;;;11.45;2.67;;;;;;;2.67;100.00;99823.91;5219971;28;20149;-67
2021/12/05 00:59:58;;;;;;;11.90;1.95;;;;;;;2.63;100.00;99829.63;5222085;28;20078;-66
2021/12/05 01:10:38;;;;;;;15.02;2.70;;;;;;;2.55;100.00;99840.88;5221391;28;20028;-67
2021/12/05 01:15:29;;;;;;;8.15;2.15;;;;;;;2.69;100.00;99839.66;5221522;28;20468;-67
2021/12/05 01:18:04;;;;;;;14.63;2.63;;;;;;;2.63;100.00;99835.75;5221656;28;20055;-67
2021/12/05 01:20:37;;;;;;;;;;;;;;;2.64;100.00;99837.41;5221595;28;20194;-67
2021/12/05 01:23:20;;;;;;;9.35;2.50;;;;;;;2.72;100.00;99845.50;5221690;28;19908;-67
2021/12/05 01:26:04;;;;;;;14.10;2.20;;;;;;;2.77;100.00;99839.78;5208308;28;20025;-67
2021/12/05 01:31:38;;;;;;;9.07;1.85;;;;;;;2.84;100.00;99840.88;5221101;28;20055;-67
2021/12/05 01:34:24;;;;;;;11.88;2.45;;;;;;;2.85;100.00;99839.91;5221125;28;20127;-66
2021/12/05 01:37:21;;;;;;;13.70;1.67;;;;;;;2.95;100.00;99837.25;5221455;28;20085;-67
2021/12/05 01:40:09;;;;;;;11.68;2.03;;;;;;;3.01;100.00;99837.53;5221290;28;20501;-67
2021/12/05 01:43:10;;;;;;;11.38;2.25;;;;;;;3.04;100.00;99831.09;5221315;28;20036;-66
2021/12/05 02:12:31;;;;;;;6.57;2.40;;;;;;;3.09;100.00;99818.25;5221148;28;20112;-67
2021/12/05 02:15:22;;;;;;;12.40;2.80;;;;;;;3.13;100.00;99819.63;5219773;28;20393;-67
2021/12/05 02:29:42;;;;;;;14.07;2.60;;;;;;;3.12;100.00;99807.38;5225139;28;20092;-67
2021/12/05 02:35:23;;;;;;;11.23;2.60;;;;;;;3.14;100.00;99797.44;5224457;28;20021;-67
2021/12/05 02:38:16;;;;;;;;;;;;;;;3.17;100.00;99789.22;5225671;28;20036;-66
2021/12/05 02:41:03;;;;;;;11.75;2.47;;;;;;;3.14;100.00;99793.97;5214300;28;19909;-67
2021/12/05 02:43:40;;;;;;;9.93;2.60;;;;;;;3.12;100.00;99794.13;5225164;28;20032;-66
2021/12/05 02:46:14;;;;;;;13.05;2.97;;;;;;;3.11;100.00;99789.78;5224314;28;20416;-67
2021/12/05 02:48:46;;;;;;;9.98;2.58;;;;;;;3.12;100.00;99796.78;5225422;28;20017;-69
2021/12/05 02:51:21;;;;;;;7.72;2.45;;;;;;;3.13;100.00;99794.97;5224826;28;20056;-67
2021/12/05 02:56:36;;;;;;;10.48;2.80;;;;;;;3.17;100.00;99786.56;5223925;28;20053;-67
2021/12/05 02:59:28;;;;;;;12.32;3.55;;;;;;;3.18;100.00;99785.59;5224712;28;20033;-66
2021/12/05 03:02:05;;;;;;;10.98;3.20;;;;;;;3.17;100.00;99791.88;5224933;28;20029;-67
2021/12/05 03:04:40;;;;;;;9.82;2.70;;;;;;;3.12;100.00;99788.81;5223846;28;20028;-67
2021/12/05 03:07:13;;;;;;;7.10;3.03;;;;;;;3.10;100.00;99788.13;5224534;28;20053;-66
2021/12/05 03:09:44;;;;;;;11.20;4.10;;;;;;;3.13;100.00;99789.66;5224347;28;20112;-66
2021/12/05 03:12:17;;;;;;;14.00;2.97;;;;;;;3.21;100.00;99784.44;5224439;28;20029;-67
2021/12/05 03:15:01;;;;;;;12.70;3.28;;;;;;;3.21;100.00;99789.75;5221800;28;20025;-67
2021/12/05 03:17:32;;;;;;;13.25;2.75;;;;;;;3.22;100.00;99791.44;5224483;28;20469;-67
2021/12/05 03:20:05;;;;;;;15.23;3.13;;;;;;;3.24;100.00;99792.13;5224467;28;20056;-66
2021/12/05 03:22:36;;;;;;;13.52;3.38;;;;;;;3.24;100.00;99792.13;5224109;28;20035;-66
2021/12/05 03:25:08;;;;;;;13.75;4.30;;;;;;;3.23;100.00;99788.63;5223664;28;20107;-66
2021/12/05 03:27:41;;;;;;;10.80;2.92;;;;;;;3.28;100.00;99789.03;5224262;28;20036;-66
2021/12/05 03:30:14;;;;;;;8.52;3.05;;;;;;;3.32;100.00;99798.38;5224139;28;20404;-67
2021/12/05 03:32:48;;;;;;;11.80;2.88;;;;;;;3.29;100.00;99788.06;5224230;28;20051;-67
2021/12/05 03:35:22;;;;;;;9.63;3.65;;;;;;;3.33;100.00;99783.31;5223161;28;20120;-67
2021/12/05 03:37:52;;;;;;;9.35;2.85;;;;;;;3.34;100.00;99788.44;5224176;28;20021;-67
2021/12/05 03:40:25;;;;;;;15.63;3.05;;;;;;;3.37;100.00;99782.03;5224009;28;20086;-67
2021/12/05 03:42:58;;;;;;;12.10;3.47;;;;;;;3.35;100.00;99789.28;5224073;28;20075;-67
2021/12/05 03:45:34;;;;;;;12.10;3.08;;;;;;;3.35;100.00;99791.94;5223488;28;20033;-67
2021/12/05 03:48:06;;;;;;;12.60;3.22;;;;;;;3.29;100.00;99787.22;5223752;28;20094;-67
2021/12/05 03:50:37;;;;;;;13.18;3.33;;;;;;;3.28;100.00;99793.50;5223360;28;20029;-67
2021/12/05 03:53:09;;;;;;;12.15;3.53;;;;;;;3.24;100.00;99792.13;5223835;28;20078;-67
2021/12/05 03:55:42;;;;;;;9.98;3.42;;;;;;;3.19;100.00;99781.94;5222876;28;20422;-67
2021/12/05 03:58:13;;;;;;;7.97;3.30;;;;;;;3.13;100.00;99785.19;5218790;28;20045;-67
2021/12/05 04:00:47;;;;;;;8.02;3.58;;;;;;;3.13;100.00;99787.84;5217079;28;20025;-67
2021/12/05 04:03:20;;;;;;;12.02;3.30;;;;;;;3.09;100.00;99784.63;5223383;28;20021;-67
2021/12/05 04:05:52;;;;;;;9.73;3.80;;;;;;;3.05;100.00;99790.38;5222732;28;20021;-67
2021/12/05 04:08:25;;;;;;;15.43;4.88;;;;;;;3.01;100.00;99792.47;5223806;28;20025;-67
2021/12/05 04:11:02;;;;;;;10.73;3.95;;;;;;;2.96;100.00;99789.44;5223008;28;20119;-67
2021/12/05 04:13:33;;;;;;;10.05;3.40;;;;;;;2.87;100.00;99792.09;5214432;28;20079;-67
2021/12/05 04:16:05;;;;;;;9.02;3.05;;;;;;;2.83;100.00;99792.38;5222462;28;20456;-67
2021/12/05 04:18:38;;;;;;;14.43;3.88;;;;;;;2.78;100.00;99793.78;5222830;28;20032;-67
2021/12/05 04:21:08;;;;;;;12.07;3.10;;;;;;;2.78;100.00;99799.06;5223021;28;20047;-67
2021/12/05 04:23:39;;;;;;;13.30;4.07;;;;;;;2.72;100.00;99795.19;5222647;28;20647;-67
2021/12/05 04:26:10;;;;;;;7.35;3.10;;;;;;;2.66;100.00;99789.59;5222344;28;20029;-67
2021/12/05 04:28:41;;;;;;;6.88;3.38;;;;;;;2.66;100.00;99784.31;5222848;28;20393;-67
2021/12/05 04:31:12;;;;;;;9.73;3.03;;;;;;;2.58;100.00;99793.78;5222986;28;20467;-67
2021/12/05 04:33:42;;;;;;;12.05;3.85;;;;;;;2.56;100.00;99786.97;5222972;28;20428;-67
2021/12/05 04:36:13;;;;;;;8.68;3.67;;;;;;;2.54;100.00;99799.50;5222018;28;20365;-67
2021/12/05 04:38:44;;;;;;;11.75;3.85;;;;;;;2.55;100.00;99790.59;5222477;28;20040;-67
2021/12/05 04:41:16;;;;;;;13.57;3.83;;;;;;;2.53;100.00;99784.59;5222429;28;20079;-67
2021/12/05 04:43:47;;;;;;;8.43;3.75;;;;;;;2.56;100.00;99790.47;5222502;28;20477;-67
2021/12/05 04:46:23;;;;;;;11.65;3.88;;;;;;;2.53;100.00;99789.91;5220902;28;20056;-67
2021/12/05 04:48:55;;;;;;;8.70;3.60;;;;;;;2.53;100.00;99795.19;5221858;28;20035;-67
2021/12/05 04:51:31;;;;;;;10.50;3.78;;;;;;;2.52;100.00;99793.53;5222390;28;20028;-67
2021/12/05 04:54:02;;;;;;;;;;;;;;;2.52;100.00;99785.59;5222866;28;20021;-67
2021/12/05 04:56:33;;;;;;;12.15;4.57;;;;;;;2.50;100.00;99795.47;5221820;28;19915;-67
2021/12/05 04:59:12;;;;;;;10.43;4.03;;;;;;;2.53;100.00;99792.56;5221795;28;20509;-67
2021/12/05 05:01:46;;;;;;;12.70;3.83;;;;;;;2.52;100.00;99790.88;5222585;28;20116;-67
2021/12/05 05:04:27;;;;;;;11.38;3.80;;;;;;;2.51;100.00;99794.47;5221903;28;20040;-67
2021/12/05 05:07:05;;;;;;;14.32;5.82;;;;;;;2.52;100.00;99796.19;5222157;28;20043;-67
2021/12/05 05:09:35;;;;;;;13.23;4.30;;;;;;;2.54;100.00;99795.03;5221518;28;20035;-67
2021/12/05 05:12:06;;;;;;;16.55;4.70;;;;;;;2.57;100.00;99799.25;5221690;28;20028;-67
2021/12/05 05:14:37;;;;;;;16.52;4.63;;;;;;;2.55;100.00;99804.66;5212470;28;20059;-67
2021/12/05 05:17:08;;;;;;;11.07;5.35;;;;;;;2.55;100.00;99801.19;5222123;28;20412;-67
2021/12/05 05:19:43;;;;;;;16.02;6.28;;;;;;;2.57;100.00;99810.66;5222005;28;20020;-67
2021/12/05 05:25:26;;;;;;;11.55;5.10;;;;;;;2.55;100.00;99807.31;5221649;28;20028;-67
2021/12/05 05:28:12;;;;;;;13.52;5.22;;;;;;;2.59;100.00;99806.06;5211756;28;20413;-67
2021/12/05 05:30:56;;;;;;;16.10;4.68;;;;;;;2.59;100.00;99800.75;5208273;28;20036;-67
2021/12/05 05:39:30;;;;;;;17.48;6.10;;;;;;;2.59;100.00;99816.66;5210535;28;20033;-67
2021/12/05 05:42:23;;;;;;;15.63;5.45;;;;;;;2.63;100.00;99813.72;5221628;28;20326;-67
2021/12/05 05:47:41;;;;;;;16.98;6.07;;;;;;;2.63;100.00;99813.72;5221675;28;20029;-67
2021/12/05 05:50:13;;;;;;;24.67;6.80;;;;;;;2.62;100.00;99812.91;5208749;28;20422;-67
2021/12/05 05:52:44;;;;;;;16.52;6.80;;;;;;;2.64;100.00;99805.63;5221488;28;20025;-67
2021/12/05 05:55:15;;;;;;;19.15;6.93;;;;;;;2.64;100.00;99815.41;5220908;28;20671;-67
2021/12/05 06:00:32;;;;;;;17.02;7.32;;;;;;;2.67;100.00;99815.97;5205505;28;20448;-67
2021/12/05 06:03:20;;;;;;;19.25;6.68;;;;;;;2.64;100.00;99824.16;5219506;28;20076;-67
2021/12/05 06:05:55;;;;;;;20.70;6.47;;;;;;;2.64;100.00;99816.22;5219177;28;20074;-67
2021/12/05 06:08:28;;;;;;;16.17;6.15;;;;;;;2.66;100.00;99818.72;5220670;28;20048;-67
2021/12/05 06:11:02;;;;;;;17.00;6.65;;;;;;;2.62;100.00;99826.13;5220148;28;20021;-67
2021/12/05 06:13:34;;;;;;;14.55;6.35;;;;;;;2.64;100.00;99821.53;5219976;28;20115;-67
2021/12/05 06:16:07;;;;;;;17.33;6.30;;;;;;;2.66;100.00;99826.66;5219993;28;20029;-67
2021/12/05 06:18:38;;;;;;;10.07;5.32;;;;;;;2.66;100.00;99830.19;5219970;28;20029;-67
2021/12/05 06:21:10;;;;;;;14.48;7.07;;;;;;;2.65;100.00;99830.31;5220425;28;20108;-67
2021/12/05 06:23:41;;;;;;;10.75;5.63;;;;;;;2.65;100.00;99836.44;5219598;28;20125;-67
2021/12/05 06:26:19;;;;;;;14.40;6.43;;;;;;;2.62;100.00;99836.72;5219657;28;20036;-67
2021/12/05 06:29:14;;;;;;;11.77;5.50;;;;;;;2.63;100.00;99835.75;5219124;28;20056;-67
2021/12/05 06:32:05;;;;;;;17.02;6.43;;;;;;;2.64;100.00;99844.53;5218724;28;20029;-67
2021/12/05 06:42:49;;;;;;;11.35;5.72;;;;;;;2.62;100.00;99835.91;5220111;28;20499;-67
2021/12/05 06:48:09;;;;;;;12.52;5.53;;;;;;;2.57;100.00;99833.66;5219370;28;20483;-67
2021/12/05 06:50:39;;;;;;;14.13;5.32;;;;;;;2.57;100.00;99844.25;5219637;28;20112;-68
2021/12/05 06:53:10;;;;;;;13.73;6.13;;;;;;;2.58;100.00;99845.91;5219441;28;20481;-67
2021/12/05 06:55:41;;;;;;;12.55;6.10;;;;;;;2.61;100.00;99848.31;5217961;28;20588;-68
2021/12/05 06:58:11;;;;;;;17.52;6.32;;;;;;;2.60;100.00;99849.25;5219198;28;20029;-68
2021/12/05 07:00:42;;;;;;;15.18;5.57;;;;;;;2.58;100.00;99851.22;5218640;28;20033;-67
2021/12/05 07:03:13;;;;;;;15.32;5.75;;;;;;;2.57;100.00;99855.69;5219837;28;20104;-68
2021/12/05 07:06:00;;;;;;;12.00;5.97;;;;;;;2.57;100.00;99858.31;5218993;28;20017;-68
2021/12/05 07:08:35;;;;;;;15.30;5.82;;;;;;;2.58;100.00;99861.81;5218511;28;20060;-68
2021/12/05 07:16:41;;;;;;;14.43;5.32;;;;;;;2.59;100.00;99863.47;5223152;28;20052;-68
2021/12/05 07:19:24;;;;;;;12.88;5.20;;;;;;;2.58;100.00;99867.94;5223384;28;20564;-68
2021/12/05 07:21:59;;;;;;;11.85;5.65;;;;;;;2.64;100.00;99873.66;5223336;28;20024;-67
2021/12/05 07:24:45;;;;;;;11.15;4.90;;;;;;;2.67;100.00;99876.03;5222572;28;20359;-67
2021/12/05 07:44:06;;;;;;;10.70;5.97;;;;;;;2.59;100.00;99892.59;5222639;28;20104;-66
2021/12/05 07:46:36;;;;;;;10.65;4.90;;;;;;;2.63;100.00;99891.34;5222714;28;20032;-67
2021/12/05 07:49:10;;;;;;;12.82;5.65;;;;;;;2.66;100.00;99895.53;5222847;28;20025;-67
2021/12/05 07:51:45;;;;;;;13.75;6.10;;;;;;;2.62;100.00;99894.16;5222451;28;20025;-67
2021/12/05 07:54:31;;;;;;;;;;;;;;;2.63;100.00;99896.66;5222034;28;20044;-67
2021/12/05 07:57:23;;;;;;;13.75;6.07;;;;;;;2.61;100.00;99898.63;5219716;28;20078;-67
2021/12/05 08:00:13;;;;;;;17.23;6.75;;;;;;;2.64;100.00;99900.13;5210114;28;20021;-67
2021/12/05 08:16:52;;;;;;;16.13;6.18;;;;;;;2.63;100.00;99925.78;5221950;28;20017;-68
2021/12/05 08:19:22;;;;;;;11.70;5.97;;;;;;;2.65;100.00;99921.19;5221581;28;20024;-67
2021/12/05 08:21:55;;;;;;;13.80;6.20;;;;;;;2.66;100.00;99916.72;5221401;28;20033;-67
2021/12/05 08:24:31;;;;;;;9.57;5.40;;;;;;;2.65;100.00;99923.81;5220880;28;20470;-68
2021/12/05 08:27:05;;;;;;;17.45;6.80;;;;;;;2.67;100.00;99929.00;5221708;28;20397;-67
2021/12/05 08:32:28;;;;;;;8.00;4.63;;;;;;;2.71;100.00;99927.72;5221912;28;20032;-68
2021/12/05 08:35:11;;;;;;;8.77;4.43;;;;;;;2.67;100.00;99936.94;5221380;28;20036;-68
2021/12/05 08:40:55;;;;;;;6.80;4.18;;;;;;;2.68;100.00;99935.97;5221168;28;20100;-67
2021/12/05 09:08:48;;;;;;;8.13;4.32;;;;;;;2.83;100.00;99976.97;5210633;28;20052;-67
2021/12/05 09:20:19;;;;;;;12.55;6.45;;;;;;;2.90;100.00;99988.69;5220440;28;20029;-66
2021/12/05 09:23:35;;;;;;;10.45;5.30;;;;;;;2.85;100.00;99990.91;5220758;28;20119;-66
2021/12/05 09:26:10;;;;;;;9.32;5.15;;;;;;;2.87;100.00;100001.38;5219526;28;20025;-67
2021/12/05 09:51:35;;;;;;;9.48;5.00;;;;;;;2.71;100.00;100033.66;5219596;28;20107;-66
2021/12/05 10:01:45;;;;;;;10.27;4.80;;;;;;;2.82;100.00;100039.72;5210776;28;20044;-66
2021/12/05 10:13:27;;;;;;;9.40;5.03;;;;;;;2.96;100.00;100051.75;5214530;28;20025;-67
2021/12/05 10:16:12;;;;;;;9.73;5.15;;;;;;;2.97;100.00;100057.88;5217147;28;20457;-66
2021/12/05 10:35:39;;;;;;;10.73;4.82;;;;;;;3.06;100.00;100072.91;5219124;28;20049;-67
2021/12/05 10:38:14;;;;;;;8.15;4.60;;;;;;;3.03;100.00;100073.22;5218393;28;20039;-67
2021/12/05 10:41:00;;;;;;;9.70;4.90;;;;;;;3.09;100.00;100073.50;5219700;28;20587;-67
2021/12/05 10:43:32;;;;;;;11.57;6.05;;;;;;;3.26;100.00;100073.78;5219584;28;20154;-67
2021/12/05 10:46:07;;;;;;;10.75;5.40;;;;;;;3.33;100.00;100073.13;5220182;28;20035;-67
2021/12/05 10:48:48;;;;;;;11.30;5.68;;;;;;;3.48;100.00;100067.41;5224191;28;20034;-67
2021/12/05 10:51:19;;;;;;;8.88;4.75;;;;;;;3.56;100.00;100068.34;5221651;28;20024;-68
2021/12/05 10:53:54;;;;;;;9.60;5.57;;;;;;;3.63;100.00;100079.25;5223667;28;20051;-67
2021/12/05 10:56:31;;;;;;;11.27;5.85;;;;;;;3.77;100.00;100078.84;5223387;28;20025;-66
2021/12/05 10:59:13;;;;;;;9.98;5.25;;;;;;;3.75;100.00;100080.78;5223516;28;20055;-66
2021/12/05 11:01:48;;;;;;;10.50;5.93;;;;;;;3.86;100.00;100088.56;5221386;28;20029;-67
2021/12/05 11:04:22;;;;;;;13.40;5.15;;;;;;;4.05;100.00;100095.69;5222551;28;20029;-67
2021/12/05 11:06:57;;;;;;;8.25;5.20;;;;;;;4.20;100.00;100095.22;5223224;28;20048;-66
2021/12/05 11:09:34;;;;;;;10.73;5.50;;;;;;;4.16;100.00;100102.63;5214597;28;20102;-67
2021/12/05 11:12:14;;;;;;;12.40;5.10;;;;;;;4.14;100.00;100105.44;5222353;28;20242;-66
2021/12/05 11:14:50;;;;;;;8.57;5.38;;;;;;;4.16;100.00;100095.50;5220832;28;20028;-67
2021/12/05 11:17:24;;;;;;;9.65;5.25;;;;;;;4.11;100.00;100094.28;5214548;28;20025;-66
2021/12/05 11:20:02;;;;;;;13.00;6.43;;;;;;;4.08;100.00;100094.56;5222842;28;20521;-67
2021/12/05 11:22:36;;;;;;;11.15;5.85;;;;;;;3.95;100.00;100091.38;5222655;28;20024;-66
2021/12/05 11:25:13;;;;;;;11.98;6.22;;;;;;;3.99;100.00;100106.03;5213402;28;20029;-66
2021/12/05 11:27:50;;;;;;;11.30;5.45;;;;;;;3.93;100.00;100109.25;5223021;28;20417;-66
2021/12/05 11:30:22;;;;;;;12.80;6.25;;;;;;;3.95;100.00;100120.56;5209832;28;20029;-66
2021/12/05 11:32:58;;;;;;;10.90;6.25;;;;;;;3.95;100.00;100124.06;5216985;28;20493;-66
2021/12/05 11:35:35;;;;;;;15.18;6.28;;;;;;;3.96;100.00;100132.84;5222123;28;20033;-64
2021/12/05 11:38:13;;;;;;;13.07;6.05;;;;;;;3.93;100.00;100135.81;5223021;28;20060;-67
2021/12/05 11:40:53;;;;;;;13.25;6.85;;;;;;;3.92;100.00;100145.59;5213866;28;20022;-66
2021/12/05 11:43:36;;;;;;;17.00;7.25;;;;;;;3.93;100.00;100144.59;5214867;28;20505;-66
2021/12/05 11:46:15;;;;;;;11.73;6.03;;;;;;;3.85;100.00;100142.63;5216633;28;20013;-66
2021/12/05 11:48:49;;;;;;;15.40;6.60;;;;;;;3.78;100.00;100144.19;5212459;28;20025;-66
2021/12/05 11:51:44;;;;;;;11.82;6.40;;;;;;;3.83;100.00;100136.63;5221196;28;20032;-67
2021/12/05 11:54:20;;;;;;;13.40;7.28;;;;;;;3.85;100.00;100139.97;5220794;28;20059;-67
2021/12/05 11:56:59;;;;;;;11.07;6.13;;;;;;;3.74;100.00;100144.59;5209869;28;20024;-66
2021/12/05 11:59:41;;;;;;;12.50;5.85;;;;;;;3.81;100.00;100153.66;5224835;28;20481;-66
2021/12/05 12:02:18;;;;;;;10.77;6.15;;;;;;;3.79;100.00;100152.97;5224405;28;20025;-65
2021/12/05 12:05:00;;;;;;;13.25;6.68;;;;;;;3.81;100.00;100156.31;5221578;28;20075;-66
2021/12/05 12:07:34;;;;;;;12.50;7.28;;;;;;;3.80;100.00;100162.59;5222089;28;20028;-65
2021/12/05 12:10:19;;;;;;;14.18;6.97;;;;;;;3.82;100.00;100169.47;5222504;28;20035;-66
2021/12/05 12:12:55;;;;;;;17.15;8.00;;;;;;;3.81;100.00;100164.28;5219423;28;20362;-67
2021/12/05 12:15:28;;;;;;;15.18;8.57;;;;;;;3.83;100.00;100157.88;5214742;28;20029;-65
2021/12/05 12:18:08;;;;;;;15.18;7.00;;;;;;;3.83;100.00;100157.03;5221926;28;20117;-66
2021/12/05 12:20:40;;;;;;;13.82;7.00;;;;;;;3.83;100.00;100157.03;5221827;28;20020;-66
2021/12/05 12:23:12;;;;;;;14.63;7.35;;;;;;;3.76;100.00;100156.72;5220388;28;20036;-67
2021/12/05 12:25:44;;;;;;;14.82;7.22;;;;;;;3.85;100.00;100163.03;5221203;28;20029;-67
2021/12/05 12:28:16;;;;;;;13.90;7.30;;;;;;;3.81;100.00;100162.47;5221755;28;20083;-66
2021/12/05 12:30:54;;;;;;;13.13;7.57;;;;;;;3.82;100.00;100166.81;5222070;28;20027;-66
2021/12/05 12:33:31;;;;;;;11.63;6.70;;;;;;;3.83;100.00;100168.47;5221398;28;20025;-65
2021/12/05 12:36:03;;;;;;;15.75;6.75;;;;;;;3.83;100.00;100171.13;5221038;28;20111;-65
2021/12/05 12:38:39;;;;;;;16.45;7.82;;;;;;;3.78;100.00;100169.88;5221405;28;20660;-67
2021/12/05 12:41:14;;;;;;;14.73;7.75;;;;;;;3.78;100.00;100178.66;5221474;28;20083;-67
2021/12/05 12:43:48;;;;;;;;;;;;;;;3.80;100.00;100183.84;5221551;28;20024;-67
2021/12/05 12:46:27;;;;;;;12.98;7.35;;;;;;;3.82;100.00;100177.44;5220901;28;19915;-67
2021/12/05 12:49:13;;;;;;;13.63;7.82;;;;;;;3.86;100.00;100180.63;5221306;28;20142;-67
2021/12/05 12:51:48;;;;;;;14.18;7.38;;;;;;;3.81;100.00;100182.84;5221182;28;20452;-67
2021/12/05 12:54:35;;;;;;;19.08;8.88;;;;;;;3.77;100.00;100178.81;5220073;28;20510;-67
2021/12/05 12:57:23;;;;;;;34.03;14.20;;;;;;;3.76;100.00;100175.31;5221547;28;20021;-67
2021/12/05 12:59:56;;;;;;;28.05;12.48;;;;;;;3.82;100.00;100184.56;5221130;28;20021;-67
2021/12/05 13:02:48;;;;;;;23.42;8.90;;;;;;;3.85;100.00;100190.41;5220598;28;20040;-67
2021/12/05 13:11:05;;;;;;;15.25;8.10;;;;;;;3.98;100.00;100203.41;5220174;28;20033;-67
2021/12/05 13:13:39;;;;;;;14.75;7.88;;;;;;;4.00;100.00;100205.91;5212363;28;20525;-67
2021/12/05 13:16:16;;;;;;;17.00;9.10;;;;;;;4.05;100.00;100204.50;5206644;28;20028;-65
2021/12/05 13:18:56;;;;;;;14.43;7.70;;;;;;;4.05;100.00;100209.81;5220764;28;20044;-66
2021/12/05 13:21:33;;;;;;;14.40;8.55;;;;;;;4.09;100.00;100205.06;5220588;28;20075;-66
2021/12/05 13:24:20;;;;;;;17.08;7.93;;;;;;;4.06;100.00;100211.50;5220114;28;20074;-66
2021/12/05 13:26:54;;;;;;;13.65;7.60;;;;;;;4.06;100.00;100218.63;5220913;28;20483;-66
2021/12/05 13:29:26;;;;;;;15.80;8.13;;;;;;;4.02;100.00;100218.06;5220639;28;20056;-66
2021/12/05 13:32:13;;;;;;;14.07;8.27;;;;;;;4.00;100.00;100224.50;5219946;28;20021;-66
2021/12/05 13:34:48;;;;;;;14.38;8.75;;;;;;;3.99;100.00;100228.97;5220139;28;20053;-66
2021/12/05 13:37:23;;;;;;;21.27;8.75;;;;;;;3.99;100.00;100236.09;5220264;28;20016;-66
2021/12/05 13:40:18;;;;;;;20.95;9.77;;;;;;;3.97;100.00;100233.59;5220153;28;20432;-66
2021/12/05 13:42:52;;;;;;;14.02;8.90;;;;;;;3.95;100.00;100232.03;5220641;28;20056;-66
2021/12/05 13:45:26;;;;;;;13.85;8.10;;;;;;;3.95;100.00;100242.66;5218775;28;20021;-66
2021/12/05 13:47:58;;;;;;;19.00;9.07;;;;;;;3.94;100.00;100247.13;5219287;28;20036;-66
2021/12/05 13:50:33;;;;;;;16.85;8.55;;;;;;;3.99;100.00;100241.41;5220124;28;20036;-66
2021/12/05 13:53:03;;;;;;;14.98;8.52;;;;;;;3.96;100.00;100237.19;5219972;28;20013;-66
2021/12/05 13:55:43;;;;;;;17.63;8.30;;;;;;;3.95;100.00;100250.59;5219068;28;20532;-67
2021/12/05 13:58:24;;;;;;;16.40;8.73;;;;;;;3.93;100.00;100258.72;5219885;28;20040;-67
2021/12/05 14:00:57;;;;;;;13.43;8.18;;;;;;;3.97;100.00;100264.59;5219491;28;20025;-67
2021/12/05 14:03:57;;;;;;;19.20;8.63;;;;;;;3.85;100.00;100261.22;5220180;28;20292;-67
2021/12/05 14:06:34;;;;;;;18.75;9.15;;;;;;;3.87;100.00;100259.28;5206509;28;20025;-67
2021/12/05 14:09:10;;;;;;;21.10;10.00;;;;;;;3.89;100.00;100260.78;5219709;28;20127;-67
2021/12/05 14:11:44;;;;;;;18.27;10.38;;;;;;;3.89;100.00;100268.75;5218846;28;20059;-66
2021/12/05 14:14:17;;;;;;;17.38;10.48;;;;;;;3.86;100.00;100271.66;5210044;28;20105;-67
2021/12/05 14:16:50;;;;;;;18.58;9.52;;;;;;;3.90;100.00;100282.84;5220045;28;20021;-66
2021/12/05 14:19:25;;;;;;;15.98;8.82;;;;;;;3.87;100.00;100280.50;5219810;28;20032;-66
2021/12/05 14:21:59;;;;;;;16.33;9.55;;;;;;;3.89;100.00;100284.69;5222299;28;20041;-67
2021/12/05 14:24:35;;;;;;;19.38;9.23;;;;;;;3.92;100.00;100285.41;5224137;28;20017;-67
2021/12/05 14:27:10;;;;;;;17.30;8.68;;;;;;;3.93;100.00;100297.69;5224357;28;20491;-68
2021/12/05 14:29:42;;;;;;;19.15;9.05;;;;;;;3.93;100.00;100305.66;5224301;28;20046;-67
2021/12/05 14:32:22;;;;;;;20.75;9.93;;;;;;;3.92;100.00;100309.28;5223717;28;20082;-67
2021/12/05 14:34:56;;;;;;;20.85;9.25;;;;;;;3.88;100.00;100309.53;5224325;28;20546;-68
2021/12/05 14:37:28;;;;;;;17.65;8.63;;;;;;;3.90;100.00;100309.41;5224093;28;20480;-67
2021/12/05 14:40:03;;;;;;;15.98;7.95;;;;;;;3.87;100.00;100313.19;5223865;28;20633;-68
2021/12/05 14:42:36;;;;;;;19.65;9.02;;;;;;;3.87;100.00;100318.50;5224052;28;20473;-67
2021/12/05 14:45:14;;;;;;;24.48;9.45;;;;;;;3.86;100.00;100316.78;5223151;28;20092;-68
2021/12/05 14:47:46;;;;;;;22.48;10.25;;;;;;;3.86;100.00;100324.75;5224143;28;20439;-68
2021/12/05 14:50:20;;;;;;;20.85;10.50;;;;;;;3.88;100.00;100320.16;5223508;28;20060;-68
2021/12/05 14:52:55;;;;;;;24.67;10.98;;;;;;;3.92;100.00;100333.16;5223362;28;20035;-66
2021/12/05 14:55:27;;;;;;;18.98;10.38;;;;;;;3.87;100.00;100339.72;5222841;28;20393;-67
2021/12/05 14:58:03;;;;;;;20.30;10.77;;;;;;;3.84;100.00;100347.94;5223586;28;20112;-68
2021/12/05 15:00:39;;;;;;;21.83;12.02;;;;;;;3.83;100.00;100351.56;5231201;28;20021;-67
2021/12/05 15:03:13;;;;;;;;;;;;;;;3.82;100.00;100343.75;5223915;28;20028;-67
2021/12/05 15:05:48;;;;;;;24.00;11.70;;;;;;;3.81;100.00;100352.66;5222621;28;19913;-66
2021/12/05 15:08:21;;;;;;;23.38;10.73;;;;;;;3.81;100.00;100355.31;5223422;28;20025;-70
2021/12/05 15:10:55;;;;;;;21.48;10.82;;;;;;;3.80;100.00;100354.47;5223340;28;20036;-67
2021/12/05 15:13:26;;;;;;;19.85;9.95;;;;;;;3.76;100.00;100365.50;5223687;28;20434;-67
2021/12/05 15:15:58;;;;;;;23.08;11.55;;;;;;;3.75;100.00;100366.47;5222589;28;20155;-66
2021/12/05 15:18:29;;;;;;;22.60;11.82;;;;;;;3.73;100.00;100368.44;5223307;28;20056;-65
2021/12/05 15:21:01;;;;;;;26.45;12.23;;;;;;;3.72;100.00;100378.22;5222893;28;20021;-64
2021/12/05 15:23:35;;;;;;;25.13;11.23;;;;;;;3.71;100.00;100380.97;5222830;28;20020;-65
2021/12/05 15:26:07;;;;;;;25.87;12.47;;;;;;;3.69;100.00;100385.59;5222179;28;20032;-65
2021/12/05 15:28:39;;;;;;;27.65;12.43;;;;;;;3.66;100.00;100392.00;5222249;28;20528;-65
2021/12/05 15:31:10;;;;;;;24.00;11.75;;;;;;;3.65;100.00;100392.97;5222733;28;20025;-66
2021/12/05 15:33:41;;;;;;;26.27;11.88;;;;;;;3.63;100.00;100400.22;5222015;28;20025;-67
2021/12/05 15:36:12;;;;;;;23.02;11.98;;;;;;;3.61;100.00;100407.47;5222216;28;20432;-66
2021/12/05 15:38:42;;;;;;;22.83;11.07;;;;;;;3.59;100.00;100401.47;5222482;28;20029;-67
2021/12/05 15:41:15;;;;;;;30.50;13.30;;;;;;;3.55;100.00;100411.47;5222186;28;20082;-67
2021/12/05 15:43:45;;;;;;;25.40;12.27;;;;;;;3.52;100.00;100413.56;5222538;28;20017;-67
2021/12/05 15:46:16;;;;;;;25.67;13.38;;;;;;;3.52;100.00;100426.84;5221944;28;20394;-67
2021/12/05 15:48:48;;;;;;;30.00;13.70;;;;;;;3.49;100.00;100427.94;5222423;28;20040;-67
2021/12/05 15:51:19;;;;;;;32.72;14.60;;;;;;;3.47;100.00;100432.53;5221615;28;20048;-67
2021/12/05 15:53:49;;;;;;;31.20;14.60;;;;;;;3.45;100.00;100429.16;5222041;28;20600;-66
2021/12/05 15:56:22;;;;;;;30.38;14.88;;;;;;;3.45;100.00;100434.47;5222170;28;20025;-67
2021/12/05 15:59:07;;;;;;;30.50;14.32;;;;;;;3.44;100.00;100438.09;5222309;28;20024;-67
2021/12/05 16:01:41;;;;;;;28.65;14.07;;;;;;;3.43;100.00;100441.72;5214662;28;20381;-67
2021/12/05 16:04:20;;;;;;;29.90;14.23;;;;;;;3.43;100.00;100446.19;5221643;28;20025;-68
2021/12/05 16:06:51;;;;;;;36.25;16.17;;;;;;;3.42;100.00;100452.47;5222329;28;20075;-67
2021/12/05 16:09:24;;;;;;;38.20;16.88;;;;;;;3.41;100.00;100461.38;5222189;28;20396;-67
2021/12/05 16:12:11;;;;;;;31.67;16.80;;;;;;;3.40;100.00;100470.28;5222082;28;20086;-68
2021/12/05 16:14:45;;;;;;;30.95;15.35;;;;;;;3.40;100.00;100468.47;5221410;28;20056;-68
2021/12/05 16:17:25;;;;;;;35.40;16.27;;;;;;;3.40;100.00;100472.94;5221625;28;20025;-66
2021/12/05 16:20:15;;;;;;;35.85;16.38;;;;;;;3.40;100.00;100479.09;5221772;28;20029;-67